createdAt,value
2018-12-18T00:13:12.842Z,3.84
2018-12-18T00:15:54.971Z,3.87
2018-12-18T00:18:30.092Z,3.89
2018-12-18T00:20:58.508Z,3.89
2018-12-18T00:23:26.823Z,3.95
2018-12-18T00:25:55.101Z,3.92
2018-12-18T00:28:23.308Z,3.97
2018-12-18T00:30:51.518Z,3.96
2018-12-18T00:33:19.959Z,3.99
2018-12-18T00:35:48.365Z,4.02
2018-12-18T00:38:17.114Z,3.98
2018-12-18T00:40:45.798Z,4.02
2018-12-18T00:43:14.285Z,4.02
2018-12-18T00:45:43.071Z,4.02
2018-12-18T00:48:11.770Z,4.10
2018-12-18T00:50:40.439Z,4.08
2018-12-18T00:53:08.773Z,4.12
2018-12-18T00:55:36.993Z,4.10
2018-12-18T00:58:05.236Z,4.16
2018-12-18T01:00:45.383Z,4.13
2018-12-18T01:03:17.699Z,4.14
2018-12-18T01:05:46.402Z,4.17
2018-12-18T01:08:15.370Z,4.22
2018-12-18T01:10:44.000Z,4.24
2018-12-18T01:13:13.333Z,4.29
2018-12-18T01:15:41.941Z,4.33
2018-12-18T01:18:10.806Z,4.36
2018-12-18T01:20:39.184Z,4.42
2018-12-18T01:23:07.660Z,4.47
2018-12-18T01:25:36.080Z,4.44
2018-12-18T01:28:04.331Z,4.50
2018-12-18T01:30:32.538Z,4.53
2018-12-18T01:33:01.035Z,4.62
2018-12-18T01:35:29.231Z,4.61
2018-12-18T01:37:57.402Z,4.62
2018-12-18T01:40:25.607Z,4.66
2018-12-18T01:42:53.835Z,4.71
2018-12-18T01:45:24.195Z,4.90
2018-12-18T01:47:52.735Z,4.84
2018-12-18T01:50:20.923Z,4.86
2018-12-18T01:52:49.118Z,4.82
2018-12-18T01:55:17.408Z,4.85
2018-12-18T01:57:45.575Z,4.86
2018-12-18T02:00:14.122Z,4.87
2018-12-18T02:02:45.470Z,4.94
2018-12-18T02:05:14.184Z,4.95
2018-12-18T02:07:42.702Z,4.92
2018-12-18T02:10:10.961Z,4.94
2018-12-18T02:12:39.160Z,4.90
2018-12-18T02:15:07.714Z,4.93
2018-12-18T02:17:35.964Z,4.93
2018-12-18T02:20:05.094Z,4.99
2018-12-18T02:22:33.261Z,4.98
2018-12-18T02:25:01.478Z,5.01
2018-12-18T02:27:29.641Z,4.97
2018-12-18T02:29:57.941Z,5.00
2018-12-18T02:32:26.501Z,5.03
2018-12-18T02:34:55.001Z,4.98
2018-12-18T02:37:23.326Z,4.96
2018-12-18T02:39:51.651Z,4.96
2018-12-18T02:42:26.830Z,5.00
2018-12-18T02:44:55.576Z,5.03
2018-12-18T02:47:24.119Z,5.09
2018-12-18T02:49:52.981Z,5.05
2018-12-18T02:52:21.880Z,5.08
2018-12-18T02:54:51.584Z,5.12
2018-12-18T02:57:20.010Z,5.16
2018-12-18T02:59:48.665Z,5.15
2018-12-18T03:02:17.922Z,5.14
2018-12-18T03:04:46.220Z,5.14
2018-12-18T03:07:14.586Z,5.21
2018-12-18T03:09:42.780Z,5.15
2018-12-18T03:12:11.045Z,5.21
2018-12-18T03:14:39.576Z,5.25
2018-12-18T03:17:08.163Z,5.21
2018-12-18T03:22:29.292Z,5.19
2018-12-18T03:24:57.516Z,5.22
2018-12-18T03:27:25.710Z,5.20
2018-12-18T03:29:53.884Z,5.21
2018-12-18T03:32:24.969Z,5.22
2018-12-18T03:34:53.258Z,5.20
2018-12-18T03:37:21.478Z,5.19
2018-12-18T03:39:49.749Z,5.20
2018-12-18T03:42:17.973Z,5.21
2018-12-18T03:44:46.134Z,5.20
2018-12-18T03:47:14.348Z,5.23
2018-12-18T03:49:42.547Z,5.27
2018-12-18T03:52:10.726Z,5.26
2018-12-18T03:54:38.974Z,5.27
2018-12-18T03:57:07.213Z,5.27
2018-12-18T03:59:35.478Z,5.29
2018-12-18T04:02:03.876Z,5.28
2018-12-18T04:04:35.552Z,5.32
2018-12-18T04:07:02.324Z,5.32
2018-12-18T04:09:30.525Z,5.32
2018-12-18T04:12:04.085Z,5.35
2018-12-18T04:14:32.318Z,5.38
2018-12-18T04:17:00.614Z,5.39
2018-12-18T04:19:28.855Z,5.37
2018-12-18T04:21:57.020Z,5.38
2018-12-18T04:24:25.274Z,5.37
2018-12-18T04:26:53.481Z,5.37
2018-12-18T04:29:21.684Z,5.37
2018-12-18T04:31:50.061Z,5.38
2018-12-18T04:34:18.207Z,5.30
2018-12-18T04:37:49.153Z,5.34
2018-12-18T04:40:17.462Z,5.37
2018-12-18T04:42:45.692Z,5.30
2018-12-18T04:45:13.916Z,5.41
2018-12-18T04:48:00.424Z,5.38
2018-12-18T04:50:28.621Z,5.36
2018-12-18T04:52:56.805Z,5.35
2018-12-18T04:55:25.102Z,5.35
2018-12-18T04:57:53.261Z,5.35
2018-12-18T05:00:21.717Z,5.36
2018-12-18T05:02:50.050Z,5.35
2018-12-18T05:05:18.373Z,5.31
2018-12-18T05:07:46.617Z,5.35
2018-12-18T05:10:14.833Z,5.32
2018-12-18T05:12:43.152Z,5.32
2018-12-18T05:15:11.353Z,5.32
2018-12-18T05:17:39.594Z,5.32
2018-12-18T05:20:08.058Z,5.30
2018-12-18T05:22:36.221Z,5.30
2018-12-18T05:25:04.537Z,5.31
2018-12-18T05:27:32.733Z,5.30
2018-12-18T05:30:02.175Z,5.29
2018-12-18T05:32:30.433Z,5.28
2018-12-18T05:34:58.701Z,5.25
2018-12-18T05:37:26.907Z,5.25
2018-12-18T05:39:55.168Z,5.25
2018-12-18T05:42:23.350Z,5.24
2018-12-18T05:44:51.585Z,5.23
2018-12-18T05:47:19.815Z,5.22
2018-12-18T05:49:51.978Z,5.22
2018-12-18T05:52:31.831Z,5.22
2018-12-18T05:55:26.618Z,5.22
2018-12-18T05:57:55.309Z,5.23
2018-12-18T06:00:27.801Z,5.25
2018-12-18T06:02:57.441Z,5.23
2018-12-18T06:05:37.817Z,5.22
2018-12-18T06:14:12.144Z,5.26
2018-12-18T06:19:43.683Z,5.22
2018-12-18T06:22:11.964Z,5.19
2018-12-18T06:24:40.179Z,5.18
2018-12-18T06:27:14.272Z,5.21
2018-12-18T06:29:43.068Z,5.22
2018-12-18T06:32:11.456Z,5.21
2018-12-18T06:34:39.705Z,5.22
2018-12-18T06:37:08.619Z,5.20
2018-12-18T06:39:38.930Z,5.20
2018-12-18T06:42:07.142Z,5.23
2018-12-18T06:44:35.320Z,5.23
2018-12-18T06:47:03.632Z,5.23
2018-12-18T06:49:31.912Z,5.24
2018-12-18T06:54:50.642Z,5.25
2018-12-18T06:57:25.206Z,5.22
2018-12-18T07:03:01.205Z,5.24
2018-12-18T07:05:29.370Z,5.19
2018-12-18T07:07:57.808Z,5.22
2018-12-18T07:10:26.209Z,5.22
2018-12-18T07:12:54.443Z,5.23
2018-12-18T07:15:23.513Z,5.22
2018-12-18T07:17:51.784Z,5.19
2018-12-18T07:20:20.010Z,5.23
2018-12-18T07:22:48.205Z,5.26
2018-12-18T07:25:16.383Z,5.27
2018-12-18T07:27:50.113Z,5.26
2018-12-18T07:30:18.628Z,5.24
2018-12-18T07:32:48.311Z,5.25
2018-12-18T07:35:23.195Z,5.25
2018-12-18T07:37:49.933Z,5.24
2018-12-18T07:42:52.988Z,5.27
2018-12-18T07:45:38.268Z,5.32
2018-12-18T07:48:07.313Z,5.31
2018-12-18T07:50:35.658Z,5.32
2018-12-18T07:53:07.188Z,5.33
2018-12-18T07:55:35.656Z,5.37
2018-12-18T07:58:04.020Z,5.30
2018-12-18T08:00:33.268Z,5.34
2018-12-18T08:03:01.904Z,5.34
2018-12-18T08:05:30.212Z,5.33
2018-12-18T08:07:58.479Z,5.35
2018-12-18T08:10:28.707Z,5.38
2018-12-18T08:12:56.922Z,5.39
2018-12-18T08:15:25.215Z,5.42
2018-12-18T08:17:54.436Z,5.41
2018-12-18T08:20:23.341Z,5.41
2018-12-18T08:22:51.775Z,5.42
2018-12-18T08:25:20.591Z,5.44
2018-12-18T08:27:49.113Z,5.46
2018-12-18T08:30:17.695Z,5.49
2018-12-18T08:32:46.246Z,5.41
2018-12-18T08:35:15.943Z,5.41
2018-12-18T08:37:44.468Z,5.42
2018-12-18T08:40:12.770Z,5.39
2018-12-18T08:42:41.464Z,5.38
2018-12-18T08:45:09.974Z,5.41
2018-12-18T08:47:38.508Z,5.42
2018-12-18T08:50:11.043Z,5.43
2018-12-18T08:52:39.663Z,5.44
2018-12-18T08:55:11.798Z,5.47
2018-12-18T08:57:41.104Z,5.49
2018-12-18T09:00:10.342Z,5.52
2018-12-18T09:02:38.509Z,5.49
2018-12-18T09:05:07.210Z,5.52
2018-12-18T09:07:35.457Z,5.53
2018-12-18T09:10:05.687Z,5.49
2018-12-18T09:12:33.870Z,5.50
2018-12-18T09:15:06.273Z,5.49
2018-12-18T09:17:39.977Z,5.51
2018-12-18T09:20:08.333Z,5.51
2018-12-18T09:22:36.771Z,5.51
2018-12-18T09:25:05.886Z,5.53
2018-12-18T09:27:34.338Z,5.61
2018-12-18T09:30:02.554Z,5.53
2018-12-18T09:32:30.930Z,5.56
2018-12-18T09:34:59.225Z,5.59
2018-12-18T09:37:28.396Z,5.61
2018-12-18T09:39:56.586Z,5.63
2018-12-18T09:42:30.305Z,5.68
2018-12-18T09:44:58.513Z,5.67
2018-12-18T09:47:27.257Z,5.70
2018-12-18T09:50:01.617Z,5.70
2018-12-18T09:52:29.790Z,5.72
2018-12-18T09:54:57.936Z,5.76
2018-12-18T09:57:31.702Z,5.75
2018-12-18T10:00:00.004Z,5.76
2018-12-18T10:02:28.257Z,5.76
2018-12-18T10:04:56.494Z,5.74
2018-12-18T10:07:25.189Z,5.80
2018-12-18T10:09:53.941Z,5.78
2018-12-18T10:12:27.964Z,5.87
2018-12-18T10:14:56.766Z,5.86
2018-12-18T10:17:25.084Z,5.89
2018-12-18T10:19:54.064Z,5.96
2018-12-18T10:22:22.947Z,5.88
2018-12-18T10:24:51.567Z,5.89
2018-12-18T10:27:19.830Z,5.84
2018-12-18T10:29:48.650Z,5.82
2018-12-18T10:32:16.958Z,5.82
2018-12-18T10:34:45.194Z,5.78
2018-12-18T10:37:13.538Z,5.75
2018-12-18T10:39:42.576Z,5.81
2018-12-18T10:42:11.123Z,5.78
2018-12-18T10:44:39.646Z,5.78
2018-12-18T10:47:08.498Z,5.81
2018-12-18T10:49:37.422Z,5.83
2018-12-18T10:52:05.834Z,5.82
2018-12-18T10:54:34.257Z,5.84
2018-12-18T10:57:02.785Z,5.85
2018-12-18T10:59:31.698Z,5.83
2018-12-18T11:02:03.810Z,5.86
2018-12-18T11:04:33.027Z,5.84
2018-12-18T11:07:02.395Z,5.84
2018-12-18T11:09:31.235Z,5.82
2018-12-18T11:14:52.969Z,5.88
2018-12-18T11:17:21.693Z,5.91
2018-12-18T11:19:52.506Z,5.95
2018-12-18T11:22:20.760Z,5.94
2018-12-18T11:24:48.972Z,5.90
2018-12-18T11:27:17.214Z,5.94
2018-12-18T11:29:45.424Z,5.94
2018-12-18T11:32:13.646Z,5.96
2018-12-18T11:34:41.932Z,5.95
2018-12-18T11:37:10.119Z,5.96
2018-12-18T11:39:39.406Z,5.96
2018-12-18T11:42:07.665Z,6.01
2018-12-18T11:44:36.254Z,6.00
2018-12-18T11:47:05.369Z,6.03
2018-12-18T11:49:33.561Z,6.03
2018-12-18T11:52:02.752Z,6.07
2018-12-18T11:54:31.092Z,6.08
2018-12-18T11:57:00.077Z,6.07
2018-12-18T11:59:29.075Z,6.09
2018-12-18T12:01:57.762Z,6.11
2018-12-18T12:04:26.755Z,6.11
2018-12-18T12:06:55.382Z,6.12
2018-12-18T12:09:24.115Z,6.10
2018-12-18T12:11:53.525Z,6.11
2018-12-18T12:14:22.529Z,6.11
2018-12-18T12:16:51.172Z,6.13
2018-12-18T12:19:20.139Z,6.14
2018-12-18T12:21:49.406Z,6.16
2018-12-18T12:24:17.839Z,6.18
2018-12-18T12:26:52.084Z,6.19
2018-12-18T12:29:20.289Z,6.18
2018-12-18T12:31:48.486Z,6.22
2018-12-18T12:34:16.668Z,6.23
2018-12-18T12:36:44.869Z,6.25
2018-12-18T12:39:13.067Z,6.24
2018-12-18T12:41:41.820Z,6.24
2018-12-18T12:44:10.559Z,6.25
2018-12-18T12:46:39.244Z,6.28
2018-12-18T12:49:10.578Z,6.35
2018-12-18T12:51:40.422Z,6.39
2018-12-18T12:54:09.108Z,6.40
2018-12-18T12:56:37.694Z,6.37
2018-12-18T12:59:06.329Z,6.36
2018-12-18T13:01:34.714Z,6.37
2018-12-18T13:04:10.620Z,6.35
2018-12-18T13:09:40.659Z,6.33
2018-12-18T13:12:09.059Z,6.30
2018-12-18T13:14:47.880Z,6.29
2018-12-18T13:17:17.068Z,6.29
2018-12-18T13:19:46.425Z,6.28
2018-12-18T13:22:23.631Z,6.29
2018-12-18T13:25:02.600Z,6.31
2018-12-18T13:27:35.166Z,6.28
2018-12-18T13:30:09.080Z,6.27
2018-12-18T13:32:37.827Z,6.24
2018-12-18T13:35:06.178Z,6.21
2018-12-18T13:37:34.409Z,6.21
2018-12-18T13:40:02.668Z,6.21
2018-12-18T13:42:31.509Z,6.17
2018-12-18T13:44:59.826Z,6.20
2018-12-18T13:47:28.531Z,6.16
2018-12-18T13:49:57.225Z,6.15
2018-12-18T13:52:26.062Z,6.12
2018-12-18T13:54:54.317Z,6.13
2018-12-18T13:57:23.761Z,6.13
2018-12-18T13:59:52.306Z,6.14
2018-12-18T14:02:21.480Z,6.12
2018-12-18T14:04:49.691Z,6.06
2018-12-18T14:07:17.963Z,6.07
2018-12-18T14:09:46.354Z,6.05
2018-12-18T14:12:15.204Z,6.02
2018-12-18T14:14:43.372Z,6.00
2018-12-18T14:17:11.613Z,6.01
2018-12-18T14:19:39.855Z,6.00
2018-12-18T14:22:08.114Z,5.91
2018-12-18T14:24:36.367Z,5.88
2018-12-18T14:27:04.718Z,5.89
2018-12-18T14:29:32.905Z,5.85
2018-12-18T14:32:01.875Z,5.77
2018-12-18T14:34:30.214Z,5.67
2018-12-18T14:36:59.471Z,5.74
2018-12-18T14:39:31.776Z,5.75
2018-12-18T14:42:00.047Z,5.76
2018-12-18T14:44:28.275Z,5.71
2018-12-18T14:46:56.481Z,5.72
2018-12-18T14:49:26.089Z,5.76
2018-12-18T14:57:46.518Z,5.83
2018-12-18T15:00:16.268Z,5.81
2018-12-18T15:02:45.350Z,5.83
2018-12-18T15:05:15.353Z,5.78
2018-12-18T15:21:19.815Z,5.74
2018-12-18T15:26:45.860Z,5.77
2018-12-18T15:29:25.723Z,5.71
2018-12-18T15:32:04.762Z,5.75
2018-12-18T15:34:33.655Z,5.71
2018-12-18T15:37:02.588Z,5.71
2018-12-18T15:39:32.750Z,5.73
2018-12-18T15:42:02.047Z,5.72
2018-12-18T15:47:24.057Z,5.89
2018-12-18T15:49:52.660Z,5.85
2018-12-18T15:52:21.486Z,5.88
2018-12-18T15:54:52.213Z,5.76
2018-12-18T15:57:21.865Z,5.70
2018-12-18T15:59:50.788Z,5.69
2018-12-18T16:02:36.224Z,5.72
2018-12-18T16:12:20.787Z,5.70
2018-12-18T16:14:49.107Z,5.72
2018-12-18T16:17:17.385Z,5.71
2018-12-18T16:19:46.157Z,5.71
2018-12-18T16:22:14.969Z,5.74
2018-12-18T16:24:43.790Z,5.72
2018-12-18T16:27:12.457Z,5.76
2018-12-18T16:29:41.408Z,5.75
2018-12-18T16:35:05.842Z,5.79
2018-12-18T16:37:34.125Z,5.75
2018-12-18T16:40:02.432Z,5.72
2018-12-18T16:42:30.697Z,5.72
2018-12-18T16:44:59.490Z,5.77
2018-12-18T16:47:27.692Z,5.73
2018-12-18T16:49:55.926Z,5.72
2018-12-18T16:52:24.196Z,5.71
2018-12-18T16:54:58.874Z,5.68
2018-12-18T16:57:30.164Z,5.65
2018-12-18T17:05:34.402Z,5.56
2018-12-18T17:08:09.202Z,5.59
2018-12-18T17:10:37.798Z,5.54
2018-12-18T17:13:06.017Z,5.48
2018-12-18T17:15:34.268Z,5.46
2018-12-18T17:18:02.428Z,5.39
2018-12-18T17:20:30.708Z,5.30
2018-12-18T17:22:59.010Z,5.25
2018-12-18T17:25:27.345Z,5.27
2018-12-18T17:27:55.621Z,5.20
2018-12-18T17:30:23.975Z,5.19
2018-12-18T17:32:52.304Z,5.16
2018-12-18T17:35:20.761Z,5.14
2018-12-18T17:37:48.943Z,5.04
2018-12-18T17:40:17.205Z,5.03
2018-12-18T17:42:45.370Z,4.96
2018-12-18T17:45:13.896Z,4.96
2018-12-18T17:48:53.789Z,4.90
2018-12-18T17:51:24.734Z,4.83
2018-12-18T17:53:53.000Z,4.85
2018-12-18T17:56:21.320Z,4.82
2018-12-18T17:58:49.737Z,4.77
2018-12-18T18:01:18.053Z,4.74
2018-12-18T18:03:46.469Z,4.72
2018-12-18T18:06:15.275Z,4.69
2018-12-18T18:08:43.607Z,4.59
2018-12-18T18:11:12.448Z,4.67
2018-12-18T18:16:45.826Z,4.39
2018-12-18T18:32:38.623Z,4.41
2018-12-18T18:35:15.415Z,4.15
2018-12-18T18:44:04.687Z,4.28
2018-12-18T18:46:32.967Z,4.19
2018-12-18T18:49:01.251Z,4.20
2018-12-18T18:51:30.449Z,4.19
2018-12-18T18:53:58.789Z,4.20
2018-12-18T18:56:27.268Z,4.07
2018-12-18T18:58:55.457Z,4.12
2018-12-18T19:01:24.569Z,4.02
2018-12-18T19:03:54.681Z,4.02
2018-12-18T19:06:26.339Z,4.07
2018-12-18T19:08:55.949Z,3.96
2018-12-18T19:11:24.838Z,3.92
2018-12-18T19:13:53.093Z,3.91
2018-12-18T19:16:21.352Z,3.81
2018-12-18T19:18:49.704Z,3.79
2018-12-18T19:21:17.872Z,3.82
2018-12-18T19:23:46.221Z,3.79
2018-12-18T21:51:45.972Z,2.62
2018-12-18T21:54:14.550Z,2.60
2018-12-18T21:56:43.000Z,2.56
2018-12-18T21:59:11.409Z,2.53
2018-12-18T22:01:39.813Z,2.49
2018-12-18T22:04:17.052Z,2.55
2018-12-18T22:06:45.756Z,2.52
2018-12-18T22:09:14.269Z,2.56
2018-12-18T22:11:42.453Z,2.50
2018-12-18T22:14:10.628Z,2.38
2018-12-18T22:16:39.087Z,2.44
2018-12-18T22:19:07.284Z,2.51
2018-12-18T22:21:35.500Z,2.53
2018-12-18T22:24:04.990Z,2.38
2018-12-18T22:26:33.200Z,2.52
2018-12-18T22:29:01.373Z,2.37
2018-12-18T22:31:29.569Z,2.43
2018-12-18T22:33:57.936Z,2.48
2018-12-18T22:36:26.082Z,2.45
2018-12-18T22:38:54.477Z,2.44
2018-12-18T22:41:22.652Z,2.42
2018-12-18T22:43:51.810Z,2.49
2018-12-18T22:46:20.142Z,2.45
2018-12-18T22:48:48.535Z,2.49
2018-12-18T22:51:16.745Z,2.41
2018-12-18T22:53:45.046Z,2.43
2018-12-18T22:56:13.195Z,2.38
2018-12-18T22:58:43.000Z,2.42
2018-12-18T23:01:18.225Z,2.36
2018-12-18T23:03:46.872Z,2.33
2018-12-18T23:06:15.087Z,2.40
2018-12-18T23:08:43.284Z,2.42
2018-12-18T23:11:12.376Z,2.49
2018-12-18T23:13:40.687Z,2.46
2018-12-18T23:16:08.913Z,2.46
2018-12-18T23:18:37.079Z,2.47
2018-12-18T23:21:05.252Z,2.41
2018-12-18T23:23:33.458Z,2.46
2018-12-18T23:26:01.701Z,2.43
2018-12-18T23:28:29.893Z,2.43
2018-12-18T23:30:58.124Z,2.43
2018-12-18T23:33:26.393Z,2.35
2018-12-18T23:35:54.615Z,2.33
2018-12-18T23:38:22.810Z,2.27
2018-12-18T23:40:51.199Z,2.22
2018-12-18T23:43:19.344Z,2.31
2018-12-18T23:45:47.524Z,2.29
2018-12-18T23:48:16.924Z,2.30
2018-12-18T23:50:45.052Z,2.27
2018-12-18T23:53:13.460Z,2.30
2018-12-18T23:55:41.618Z,2.27
2018-12-18T23:58:09.748Z,2.24
